createdAt,value
2022-11-15T00:01:23.103Z,94.80
2022-11-15T00:04:27.841Z,95.10
2022-11-15T00:07:54.464Z,95.20
2022-11-15T00:10:59.110Z,95.30
2022-11-15T00:14:04.319Z,94.90
2022-11-15T00:17:09.350Z,94.90
2022-11-15T00:20:14.203Z,94.90
2022-11-15T00:23:19.009Z,94.70
2022-11-15T00:26:23.888Z,94.70
2022-11-15T00:29:28.465Z,94.90
2022-11-15T00:32:33.622Z,93.90
2022-11-15T00:35:38.346Z,94.10
2022-11-15T00:38:43.524Z,94.60
2022-11-15T00:41:48.017Z,94.90
2022-11-15T00:44:52.800Z,95.10
2022-11-15T00:47:57.821Z,94.40
2022-11-15T00:51:02.706Z,94.00
2022-11-15T00:54:07.728Z,94.60
2022-11-15T00:57:12.416Z,94.90
2022-11-15T01:00:17.604Z,95.10
2022-11-15T01:03:22.536Z,95.10
2022-11-15T01:06:27.189Z,95.10
2022-11-15T01:09:32.417Z,94.90
2022-11-15T01:12:37.425Z,94.90
2022-11-15T01:15:43.120Z,94.70
2022-11-15T01:18:47.578Z,94.60
2022-11-15T01:21:52.570Z,94.40
2022-11-15T01:24:57.300Z,94.20
2022-11-15T01:28:02.184Z,94.10
2022-11-15T01:31:24.060Z,94.10
2022-11-15T01:34:28.611Z,94.00
2022-11-15T01:37:33.560Z,94.00
2022-11-15T01:40:38.308Z,94.00
2022-11-15T01:43:43.114Z,94.10
2022-11-15T01:46:49.205Z,93.90
2022-11-15T01:50:09.112Z,93.90
2022-11-15T01:53:14.093Z,93.70
2022-11-15T01:56:22.628Z,93.70
2022-11-15T01:59:27.492Z,93.90
2022-11-15T02:02:33.802Z,94.30
2022-11-15T02:05:39.058Z,94.00
2022-11-15T02:08:44.830Z,94.20
2022-11-15T02:11:52.095Z,93.50
2022-11-15T02:14:57.575Z,93.90
2022-11-15T02:18:02.342Z,94.30
2022-11-15T02:21:22.264Z,94.30
2022-11-15T02:24:36.003Z,93.90
2022-11-15T02:28:04.306Z,93.70
2022-11-15T02:31:15.794Z,94.00
2022-11-15T02:34:31.107Z,94.20
2022-11-15T02:37:45.648Z,94.60
2022-11-15T02:41:03.916Z,94.60
2022-11-15T02:44:13.052Z,94.60
2022-11-15T02:47:18.791Z,94.50
2022-11-15T02:50:29.129Z,94.20
2022-11-15T02:53:33.785Z,94.00
2022-11-15T02:56:39.316Z,93.70
2022-11-15T03:00:07.389Z,94.00
2022-11-15T03:03:14.598Z,94.40
2022-11-15T03:06:42.645Z,94.70
2022-11-15T03:10:01.849Z,95.00
2022-11-15T03:13:52.579Z,93.80
2022-11-15T03:17:14.786Z,94.20
2022-11-15T03:20:20.672Z,95.00
2022-11-15T03:23:26.882Z,95.20
2022-11-15T03:26:34.307Z,94.90
2022-11-15T03:29:42.980Z,94.70
2022-11-15T03:32:52.665Z,94.60
2022-11-15T03:35:57.251Z,94.10
2022-11-15T03:39:06.185Z,94.10
2022-11-15T03:42:37.054Z,94.00
2022-11-15T03:46:04.077Z,93.90
2022-11-15T03:49:25.908Z,93.90
2022-11-15T03:52:34.665Z,94.20
2022-11-15T03:55:39.622Z,94.50
2022-11-15T03:58:44.367Z,94.50
2022-11-15T04:01:49.227Z,94.60
2022-11-15T04:04:54.175Z,94.80
2022-11-15T04:07:59.271Z,95.00
2022-11-15T04:11:03.979Z,95.00
2022-11-15T04:14:09.085Z,94.70
2022-11-15T04:17:14.156Z,94.80
2022-11-15T04:20:38.733Z,94.40
2022-11-15T04:24:06.546Z,94.20
2022-11-15T04:27:13.768Z,93.80
2022-11-15T04:30:18.727Z,94.20
2022-11-15T04:33:23.766Z,94.60
2022-11-15T04:36:46.864Z,94.80
2022-11-15T04:39:51.653Z,94.80
2022-11-15T04:43:03.275Z,94.90
2022-11-15T04:46:08.782Z,95.00
2022-11-15T04:49:13.666Z,94.80
2022-11-15T04:52:18.473Z,94.70
2022-11-15T04:55:23.191Z,94.30
2022-11-15T04:58:28.208Z,94.10
2022-11-15T05:01:33.265Z,94.30
2022-11-15T05:04:38.151Z,94.80
2022-11-15T05:07:43.077Z,94.80
2022-11-15T05:10:48.828Z,94.90
2022-11-15T05:13:53.969Z,94.60
2022-11-15T05:16:58.704Z,94.10
2022-11-15T05:20:03.711Z,94.30
2022-11-15T05:23:08.472Z,94.60
2022-11-15T05:26:13.954Z,94.30
2022-11-15T05:29:18.738Z,94.70
2022-11-15T05:32:23.718Z,94.90
2022-11-15T05:35:41.014Z,95.10
2022-11-15T05:38:48.003Z,94.00
2022-11-15T05:42:01.340Z,94.20
2022-11-15T05:45:09.388Z,94.30
2022-11-15T05:48:15.014Z,94.30
2022-11-15T05:51:22.547Z,94.40
2022-11-15T05:54:27.574Z,94.00
2022-11-15T05:57:32.492Z,93.90
2022-11-15T06:00:37.677Z,94.40
2022-11-15T06:03:42.317Z,94.60
2022-11-15T06:06:46.965Z,94.90
2022-11-15T06:09:51.754Z,94.90
2022-11-15T06:13:04.478Z,94.90
2022-11-15T06:16:09.216Z,94.80
2022-11-15T06:19:14.202Z,94.10
2022-11-15T06:22:19.254Z,94.10
2022-11-15T06:25:24.262Z,94.20
2022-11-15T06:28:30.320Z,94.30
2022-11-15T06:31:35.819Z,94.40
2022-11-15T06:34:40.827Z,94.80
2022-11-15T06:37:45.594Z,95.10
2022-11-15T06:40:50.481Z,95.00
2022-11-15T06:43:55.360Z,94.60
2022-11-15T06:47:00.303Z,94.50
2022-11-15T06:50:05.488Z,94.60
2022-11-15T06:53:10.219Z,94.80
2022-11-15T06:56:15.008Z,95.10
2022-11-15T06:59:19.940Z,95.20
2022-11-15T07:02:24.781Z,94.70
2022-11-15T07:05:30.466Z,93.90
2022-11-15T07:08:36.357Z,93.10
2022-11-15T07:11:41.648Z,91.40
2022-11-15T07:14:46.124Z,90.20
2022-11-15T07:17:51.641Z,88.70
2022-11-15T07:20:56.511Z,87.40
2022-11-15T07:24:01.169Z,86.90
2022-11-15T07:27:06.155Z,87.40
2022-11-15T07:30:15.317Z,87.90
2022-11-15T07:33:20.466Z,88.50
2022-11-15T07:36:25.094Z,90.40
2022-11-15T07:39:30.112Z,91.10
2022-11-15T07:42:53.468Z,91.50
2022-11-15T07:45:59.500Z,92.00
2022-11-15T07:49:04.832Z,91.80
2022-11-15T07:52:09.626Z,91.10
2022-11-15T07:55:14.839Z,90.90
2022-11-15T07:58:19.611Z,90.20
2022-11-15T08:01:24.810Z,91.30
2022-11-15T08:04:29.766Z,91.00
2022-11-15T08:07:35.051Z,90.60
2022-11-15T08:10:40.920Z,90.30
2022-11-15T08:13:45.728Z,88.90
2022-11-15T08:16:50.643Z,87.80
2022-11-15T08:19:55.678Z,87.60
2022-11-15T08:23:02.716Z,85.20
2022-11-15T08:26:07.460Z,83.70
2022-11-15T08:29:12.343Z,82.90
2022-11-15T08:32:18.746Z,83.30
2022-11-15T08:35:28.762Z,83.50
2022-11-15T08:38:34.301Z,83.70
2022-11-15T08:41:40.104Z,83.90
2022-11-15T08:44:45.164Z,83.70
2022-11-15T08:47:54.126Z,84.90
2022-11-15T08:51:00.564Z,86.10
2022-11-15T08:54:05.392Z,87.10
2022-11-15T08:57:10.737Z,87.80
2022-11-15T09:00:15.988Z,87.60
2022-11-15T09:03:21.010Z,88.80
2022-11-15T09:06:25.541Z,88.30
2022-11-15T09:09:30.501Z,89.50
2022-11-15T09:12:36.174Z,88.60
2022-11-15T09:15:41.062Z,88.40
2022-11-15T09:18:46.114Z,86.40
2022-11-15T09:21:51.612Z,86.50
2022-11-15T09:24:56.226Z,86.60
2022-11-15T09:28:01.262Z,82.60
2022-11-15T09:31:07.513Z,81.30
2022-11-15T09:34:13.018Z,77.80
2022-11-15T09:37:18.288Z,76.60
2022-11-15T09:40:24.342Z,74.10
2022-11-15T09:43:32.704Z,71.20
2022-11-15T09:47:00.902Z,67.30
2022-11-15T09:50:15.231Z,64.40
2022-11-15T09:53:01.486Z,63.90
2022-11-15T09:55:55.362Z,62.80
2022-11-15T09:59:07.006Z,61.30
2022-11-15T10:02:30.221Z,61.60
2022-11-15T10:05:21.689Z,58.90
2022-11-15T10:08:19.738Z,59.60
2022-11-15T10:14:20.908Z,60.90
2022-11-15T10:17:23.791Z,60.50
2022-11-15T10:20:19.483Z,60.20
2022-11-15T10:23:14.263Z,61.20
2022-11-15T10:26:06.671Z,62.20
2022-11-15T10:28:53.316Z,62.10
2022-11-15T10:31:42.467Z,63.00
2022-11-15T10:34:28.362Z,61.70
2022-11-15T10:37:14.388Z,61.60
2022-11-15T10:40:15.449Z,61.60
2022-11-15T10:43:10.963Z,62.70
2022-11-15T10:46:44.585Z,62.90
2022-11-15T10:49:26.419Z,61.70
2022-11-15T10:52:20.925Z,60.30
2022-11-15T10:55:12.755Z,61.60
2022-11-15T10:58:25.139Z,61.00
2022-11-15T11:01:22.825Z,60.80
2022-11-15T11:04:10.588Z,61.90
2022-11-15T11:07:00.967Z,62.00
2022-11-15T11:09:59.162Z,60.20
2022-11-15T11:12:45.116Z,59.70
2022-11-15T11:15:31.411Z,60.50
2022-11-15T11:18:32.683Z,61.80
2022-11-15T11:21:32.964Z,62.20
2022-11-15T11:24:50.452Z,62.50
2022-11-15T11:28:10.446Z,61.70
2022-11-15T11:31:30.082Z,60.10
2022-11-15T11:34:28.279Z,58.20
2022-11-15T11:37:30.336Z,57.60
2022-11-15T11:40:36.268Z,57.20
2022-11-15T11:43:40.302Z,57.30
2022-11-15T11:46:38.534Z,56.70
2022-11-15T11:49:39.921Z,55.40
2022-11-15T11:52:36.835Z,54.70
2022-11-15T11:55:35.174Z,54.90
2022-11-15T11:58:25.110Z,56.80
2022-11-15T12:01:30.100Z,56.90
2022-11-15T12:04:19.188Z,58.60
2022-11-15T12:07:20.238Z,59.70
2022-11-15T12:10:16.840Z,59.70
2022-11-15T12:13:12.109Z,58.70
2022-11-15T12:16:11.613Z,57.30
2022-11-15T12:19:01.984Z,56.70
2022-11-15T12:21:57.914Z,56.60
2022-11-15T12:24:44.024Z,55.10
2022-11-15T12:27:44.409Z,55.70
2022-11-15T12:30:45.096Z,55.80
2022-11-15T12:33:33.400Z,55.60
2022-11-15T12:36:22.618Z,55.80
2022-11-15T12:39:10.483Z,56.00
2022-11-15T12:41:56.382Z,56.70
2022-11-15T12:44:42.472Z,57.20
2022-11-15T12:47:28.627Z,56.70
2022-11-15T12:50:15.294Z,57.30
2022-11-15T12:53:34.657Z,56.90
2022-11-15T12:56:22.685Z,56.90
2022-11-15T12:59:08.764Z,58.00
2022-11-15T13:01:59.004Z,59.10
2022-11-15T13:04:45.495Z,57.70
2022-11-15T13:07:58.133Z,57.60
2022-11-15T13:10:44.345Z,57.50
2022-11-15T13:13:46.511Z,56.90
2022-11-15T13:16:32.818Z,55.70
2022-11-15T13:19:23.273Z,55.80
2022-11-15T13:22:31.230Z,56.80
2022-11-15T13:25:24.005Z,56.80
2022-11-15T13:28:32.311Z,55.90
2022-11-15T13:31:29.940Z,55.00
2022-11-15T13:34:44.158Z,54.40
2022-11-15T13:37:22.499Z,53.80
2022-11-15T13:40:31.490Z,54.20
2022-11-15T13:43:28.585Z,52.30
2022-11-15T13:46:21.898Z,51.70
2022-11-15T13:49:12.460Z,51.50
2022-11-15T13:51:59.781Z,51.10
2022-11-15T13:54:57.033Z,50.50
2022-11-15T13:57:59.534Z,51.00
2022-11-15T14:00:47.411Z,51.90
2022-11-15T14:03:42.302Z,53.20
2022-11-15T14:06:30.699Z,54.50
2022-11-15T14:09:31.259Z,54.70
2022-11-15T14:12:36.196Z,55.20
2022-11-15T14:15:39.356Z,54.70
2022-11-15T14:19:01.098Z,53.30
2022-11-15T14:22:10.748Z,51.50
2022-11-15T14:25:17.481Z,50.60
2022-11-15T14:28:24.588Z,49.80
2022-11-15T14:31:14.198Z,49.60
2022-11-15T14:34:00.508Z,50.10
2022-11-15T14:36:47.041Z,51.10
2022-11-15T14:39:33.148Z,52.60
2022-11-15T14:42:19.977Z,54.10
2022-11-15T14:45:16.621Z,54.90
2022-11-15T14:48:03.019Z,56.80
2022-11-15T14:50:49.624Z,58.90
2022-11-15T14:53:36.030Z,61.40
2022-11-15T14:56:22.268Z,63.90
2022-11-15T14:59:08.346Z,65.30
2022-11-15T15:01:54.297Z,66.70
2022-11-15T15:04:40.304Z,68.10
2022-11-15T15:07:26.475Z,69.60
2022-11-15T15:13:23.549Z,72.00
2022-11-15T15:16:09.980Z,73.80
2022-11-15T15:18:56.113Z,74.40
2022-11-15T15:21:41.998Z,74.70
2022-11-15T15:24:27.966Z,75.20
2022-11-15T15:27:14.040Z,76.30
2022-11-15T15:30:00.270Z,76.50
2022-11-15T15:32:46.380Z,77.30
2022-11-15T15:35:34.934Z,77.80
2022-11-15T15:38:22.608Z,78.00
2022-11-15T15:41:12.688Z,78.30
2022-11-15T15:43:58.827Z,78.60
2022-11-15T15:46:44.793Z,78.70
2022-11-15T15:49:30.849Z,79.00
2022-11-15T15:52:17.953Z,79.20
2022-11-15T15:55:03.958Z,79.60
2022-11-15T15:57:50.701Z,79.70
2022-11-15T16:00:37.943Z,79.80
2022-11-15T16:03:25.046Z,80.50
2022-11-15T16:06:33.516Z,80.70
2022-11-15T16:09:43.843Z,81.10
2022-11-15T16:12:36.333Z,81.00
2022-11-15T16:15:24.697Z,81.30
2022-11-15T16:18:18.893Z,81.50
2022-11-15T16:21:05.013Z,81.50
2022-11-15T16:23:50.989Z,81.90
2022-11-15T16:26:38.358Z,82.80
2022-11-15T16:29:24.349Z,83.50
2022-11-15T16:32:10.736Z,83.60
2022-11-15T16:34:59.222Z,83.40
2022-11-15T16:37:47.142Z,84.00
2022-11-15T16:40:35.960Z,83.80
2022-11-15T16:43:22.114Z,84.10
2022-11-15T16:46:14.571Z,84.50
2022-11-15T16:49:00.547Z,83.90
2022-11-15T16:51:47.920Z,84.70
2022-11-15T16:54:33.842Z,85.60
2022-11-15T16:57:20.017Z,86.20
2022-11-15T17:00:06.463Z,86.10
2022-11-15T17:02:52.941Z,86.40
2022-11-15T17:05:39.225Z,87.20
2022-11-15T17:08:25.038Z,87.50
2022-11-15T17:11:18.555Z,87.90
2022-11-15T17:14:04.560Z,87.60
2022-11-15T17:16:50.643Z,87.90
2022-11-15T17:19:36.571Z,87.60
2022-11-15T17:22:23.258Z,87.60
2022-11-15T17:25:09.528Z,88.10
2022-11-15T17:27:56.654Z,87.00
2022-11-15T17:30:43.434Z,87.70
2022-11-15T17:33:29.251Z,88.20
2022-11-15T17:36:15.209Z,88.60
2022-11-15T17:39:01.836Z,88.90
2022-11-15T17:41:48.009Z,88.30
2022-11-15T17:44:34.190Z,88.30
2022-11-15T17:47:20.290Z,89.30
2022-11-15T17:50:06.568Z,90.10
2022-11-15T17:52:52.605Z,90.10
2022-11-15T17:55:38.635Z,90.10
2022-11-15T17:58:24.614Z,90.10
2022-11-15T18:01:19.844Z,90.00
2022-11-15T18:04:08.865Z,90.00
2022-11-15T18:06:56.478Z,89.90
2022-11-15T18:09:44.216Z,89.90
2022-11-15T18:12:30.236Z,90.00
2022-11-15T18:15:16.520Z,90.10
2022-11-15T18:18:02.755Z,90.20
2022-11-15T18:20:48.639Z,90.40
2022-11-15T18:23:35.563Z,90.50
2022-11-15T18:26:27.133Z,90.30
2022-11-15T18:29:13.590Z,89.90
2022-11-15T18:31:59.779Z,90.20
2022-11-15T18:34:46.071Z,90.10
2022-11-15T18:37:33.328Z,90.40
2022-11-15T18:40:19.041Z,90.60
2022-11-15T18:43:05.161Z,90.70
2022-11-15T18:45:51.228Z,90.70
2022-11-15T18:48:39.830Z,90.80
2022-11-15T18:51:27.247Z,90.90
2022-11-15T18:54:14.886Z,90.90
2022-11-15T18:57:01.542Z,91.20
2022-11-15T18:59:47.836Z,91.30
2022-11-15T19:02:33.929Z,91.40
2022-11-15T19:05:21.415Z,91.60
2022-11-15T19:08:07.662Z,91.30
2022-11-15T19:10:54.070Z,91.40
2022-11-15T19:13:40.084Z,91.40
2022-11-15T19:16:27.666Z,91.60
2022-11-15T19:19:16.463Z,91.80
2022-11-15T19:22:02.669Z,91.80
2022-11-15T19:24:48.695Z,91.70
2022-11-15T19:27:38.084Z,91.80
2022-11-15T19:30:24.272Z,91.70
2022-11-15T19:33:10.234Z,91.60
2022-11-15T19:36:04.681Z,91.40
2022-11-15T19:38:50.974Z,91.50
2022-11-15T19:41:38.687Z,91.70
2022-11-15T19:44:27.184Z,91.80
2022-11-15T19:47:13.470Z,91.80
2022-11-15T19:49:59.347Z,91.70
2022-11-15T19:52:45.384Z,91.40
2022-11-15T19:55:31.637Z,91.60
2022-11-15T19:58:18.175Z,91.80
2022-11-15T20:01:18.253Z,91.80
2022-11-15T20:04:05.648Z,91.90
2022-11-15T20:06:51.971Z,91.80
2022-11-15T20:09:38.392Z,91.70
2022-11-15T20:12:24.520Z,91.90
2022-11-15T20:15:10.972Z,92.00
2022-11-15T20:17:56.921Z,92.00
2022-11-15T20:20:43.563Z,92.10
2022-11-15T20:23:30.469Z,92.10
2022-11-15T20:26:17.261Z,92.10
2022-11-15T20:29:03.844Z,92.00
2022-11-15T20:31:49.684Z,91.90
2022-11-15T20:34:35.909Z,91.80
2022-11-15T20:37:22.336Z,91.70
2022-11-15T20:40:09.197Z,91.80
2022-11-15T20:42:55.410Z,91.80
2022-11-15T20:45:45.145Z,91.70
2022-11-15T20:48:32.022Z,91.50
2022-11-15T20:51:19.233Z,91.80
2022-11-15T20:54:06.203Z,91.70
2022-11-15T20:56:52.250Z,91.80
2022-11-15T20:59:38.177Z,91.80
2022-11-15T21:02:24.328Z,91.60
2022-11-15T21:05:10.519Z,91.60
2022-11-15T21:07:56.641Z,91.80
2022-11-15T21:11:01.037Z,91.70
2022-11-15T21:13:47.106Z,91.50
2022-11-15T21:16:33.369Z,91.50
2022-11-15T21:19:24.024Z,91.90
2022-11-15T21:22:14.391Z,92.00
2022-11-15T21:25:00.581Z,91.90
2022-11-15T21:27:46.590Z,91.80
2022-11-15T21:30:32.554Z,91.70
2022-11-15T21:33:18.592Z,91.70
2022-11-15T21:36:04.776Z,91.70
2022-11-15T21:38:51.113Z,91.60
2022-11-15T21:41:37.009Z,91.60
2022-11-15T21:44:23.569Z,91.50
2022-11-15T21:47:09.597Z,91.40
2022-11-15T21:49:55.552Z,91.30
2022-11-15T21:52:41.849Z,91.30
2022-11-15T21:55:28.253Z,91.30
2022-11-15T21:58:14.204Z,91.30
2022-11-15T22:01:18.990Z,91.50
2022-11-15T22:04:06.652Z,91.40
2022-11-15T22:06:52.978Z,91.30
2022-11-15T22:09:39.168Z,91.40
2022-11-15T22:12:29.503Z,91.40
2022-11-15T22:15:15.948Z,91.40
2022-11-15T22:18:02.009Z,91.50
2022-11-15T22:21:02.740Z,91.60
2022-11-15T22:23:48.934Z,91.70
2022-11-15T22:26:35.241Z,91.80
2022-11-15T22:29:21.320Z,91.70
2022-11-15T22:32:07.540Z,91.90
2022-11-15T22:34:53.562Z,91.80
2022-11-15T22:37:39.651Z,91.80
2022-11-15T22:40:25.713Z,91.70
2022-11-15T22:43:13.514Z,92.00
2022-11-15T22:46:01.341Z,91.80
2022-11-15T22:48:47.313Z,91.90
2022-11-15T22:51:33.332Z,91.80
2022-11-15T22:54:19.558Z,92.00
2022-11-15T22:57:05.663Z,91.90
2022-11-15T22:59:52.063Z,92.10
2022-11-15T23:02:38.067Z,92.30
2022-11-15T23:05:24.396Z,92.50
2022-11-15T23:08:10.670Z,92.50
2022-11-15T23:11:18.555Z,92.50
2022-11-15T23:14:04.820Z,92.50
2022-11-15T23:16:50.954Z,92.20
2022-11-15T23:19:37.579Z,92.10
2022-11-15T23:22:42.629Z,92.40
2022-11-15T23:25:28.606Z,92.70
2022-11-15T23:28:14.585Z,92.90
2022-11-15T23:31:26.376Z,93.00
2022-11-15T23:34:12.860Z,92.90
2022-11-15T23:36:59.598Z,93.00
2022-11-15T23:39:45.695Z,93.20
2022-11-15T23:42:31.986Z,93.20
2022-11-15T23:45:18.550Z,93.30
2022-11-15T23:48:04.881Z,93.30
2022-11-15T23:50:51.220Z,93.30
2022-11-15T23:53:37.554Z,93.40
2022-11-15T23:56:23.993Z,93.30
2022-11-15T23:59:10.480Z,93.40
